Branchville, Indiana
Current Conditions -  °F | °C
As of 11:55 AM on Monday 24 Nov 2014 (Local Time) from KHNB Reporting Station
Overcast Overcast  
Wind Chill: 36°   Ceiling: 3100
Heat Index: 45°   Visibility: 10mi
Dew Point: 34°   Wind: 21mph
Humidity: 66%   Direction: 240°WSW
Pressure: 29.7"   Gusts: 33mph
Location:  38.16°N, 86.58°W
Report Text: KHNB 241755Z AUTO 24018G29KT 10SM OVC031 07/01 A2970 RMK AO1 60019 10140 20060 52037
Loading
Personal Weather Stations






























Interactive Weather Map New forecast layout! Learn more

10-Day Weather Forecast

Advertisements
Track Severe Weather on mobile